CheckWX is a tool to help pilots better visualize weather data.  It is not intended as a substitute for an official pre-flight weather briefing.

02:02:15 UTC

EGUL METAR
RAF Lakenheath Airport
Lakenheath, United Kingdom
Current

1 hour ago

EGUL 200056Z AUTO 23009KT 9999 FEW075 12/10 A3004 RMK AO2 SLP176 T01230098 $
Observed
Aug-20 @ 00:56 UTC
Wind
  • 230° at 9 KTS
Visibility
10,000+ meters
Flight Rules
VFR
Cloud Levels
  • Few at 7,500' AGL
Temperature
12°C / 54°F
Dewpoint
10°C / 50°F
Humidity
88%
Altimeter
30.04" Hg
Pressure
1017.32 hPa
Previous

2 hours ago

EGUL 192356Z AUTO 22008KT 9999 CLR 13/10 A3004 RMK AO2 SLP176 60000 T01290099 10172 20124 402010124 52012 $
Observed
Aug-19 @ 23:56 UTC
Wind
  • 220° at 8 KTS
Visibility
10,000+ meters
Flight Rules
VFR
Cloud Levels
  • Clear skies
Temperature
13°C / 55°F
Dewpoint
10°C / 50°F
Humidity
82%
Altimeter
30.04" Hg
Pressure
1017.32 hPa
Previous

3 hours ago

EGUL 192256Z AUTO 23009KT 9999 CLR 13/10 A3003 RMK AO2 SLP172 T01320100 $
Observed
Aug-19 @ 22:56 UTC
Wind
  • 230° at 9 KTS
Visibility
10,000+ meters
Flight Rules
VFR
Cloud Levels
  • Clear skies
Temperature
13°C / 55°F
Dewpoint
10°C / 50°F
Humidity
82%
Altimeter
30.03" Hg
Pressure
1016.92 hPa